PWSweather.com
Personal Weather Stations
Station Observations
IMAZOWIE6
WarszawaPL

WarszawaPL

Lat: 52.27957, Lon: 21.05489

Elevation: 100

Station Type: WS1080

http://stacjapogody.waw.pl/

High Low Average
Temperature 39.7°F4.3°C 32.9°F0.5°C 35.0°F1.7°C
Dew Point 23.4°F-4.8°C 12.8°F-10.7°C 17.0°F-8.3°C
Winds 1.4 mph 2.3 kmh Calm Calm Calm NCalm N
Wind Gusts 3.4 mph5.5 kmh -- 1.0 mph1.6 kmh
Humidity 52% 43% 48%
Pressure 29.40 in995.6 mb 29.30 in992.2 mb -
Precipitation 0.00 in0.0 mm - -
Hour Temp Dew Point Humidity Winds Wind Gusts Pressure Precip Precip Rate Daily Precip Total
12:02 AM 34.7°F1.5°C 18.2°F-7.7°C 51% Calm Calm -- 29.37 in994.6 mb 0.00 in0.0 mm 0.00 in0.0 mm 0.00 in0.0 mm
12:17 AM 34.7°F1.5°C 18.2°F-7.7°C 51% Calm Calm -- 29.37 in994.6 mb 0.00 in0.0 mm 0.00 in0.0 mm 0.00 in0.0 mm
12:32 AM 34.7°F1.5°C 18.2°F-7.7°C 51% 1.4 mph N2.3 kmh N 3.4 mph5.5 kmh 29.37 in994.6 mb 0.00 in0.0 mm 0.00 in0.0 mm 0.00 in0.0 mm
12:47 AM 34.5°F1.4°C 18.1°F-7.7°C 51% 0.6 mph N1.0 kmh N 2.8 mph4.5 kmh 29.37 in994.6 mb 0.00 in0.0 mm 0.00 in0.0 mm 0.00 in0.0 mm
01:02 AM 34.5°F1.4°C 18.1°F-7.7°C 51% Calm Calm 0.6 mph1.0 kmh 29.37 in994.6 mb 0.00 in0.0 mm 0.00 in0.0 mm 0.00 in0.0 mm
01:17 AM 34.7°F1.5°C 18.2°F-7.7°C 51% Calm Calm 2.8 mph4.5 kmh 29.38 in994.9 mb 0.00 in0.0 mm 0.00 in0.0 mm 0.00 in0.0 mm
01:32 AM 34.3°F1.3°C 17.9°F-7.8°C 51% 0.6 mph N1.0 kmh N 3.4 mph5.5 kmh 29.38 in994.9 mb 0.00 in0.0 mm 0.00 in0.0 mm 0.00 in0.0 mm
01:47 AM 34.3°F1.3°C 17.9°F-7.8°C 51% 0.6 mph N1.0 kmh N 2.8 mph4.5 kmh 29.38 in994.9 mb 0.00 in0.0 mm 0.00 in0.0 mm 0.00 in0.0 mm
02:02 AM 34.5°F1.4°C 18.1°F-7.7°C 51% Calm Calm -- 29.39 in995.3 mb 0.00 in0.0 mm 0.00 in0.0 mm 0.00 in0.0 mm
02:17 AM 34.3°F1.3°C 17.9°F-7.8°C 51% Calm Calm 2.8 mph4.5 kmh 29.39 in995.3 mb 0.00 in0.0 mm 0.00 in0.0 mm 0.00 in0.0 mm
02:32 AM 34.3°F1.3°C 17.9°F-7.8°C 51% Calm Calm 0.6 mph1.0 kmh 29.39 in995.3 mb 0.00 in0.0 mm 0.00 in0.0 mm 0.00 in0.0 mm
02:47 AM 34.2°F1.2°C 17.7°F-7.9°C 51% 0.6 mph N1.0 kmh N 2.8 mph4.5 kmh 29.38 in994.9 mb 0.00 in0.0 mm 0.00 in0.0 mm 0.00 in0.0 mm
03:02 AM 34.3°F1.3°C 17.9°F-7.8°C 51% 0.6 mph N1.0 kmh N 2.0 mph3.2 kmh 29.38 in994.9 mb 0.00 in0.0 mm 0.00 in0.0 mm 0.00 in0.0 mm
03:17 AM 34.2°F1.2°C 17.7°F-7.9°C 51% Calm Calm 0.6 mph1.0 kmh 29.38 in994.9 mb 0.00 in0.0 mm 0.00 in0.0 mm 0.00 in0.0 mm
03:32 AM 34.2°F1.2°C 17.7°F-7.9°C 51% Calm Calm -- 29.39 in995.3 mb 0.00 in0.0 mm 0.00 in0.0 mm 0.00 in0.0 mm
03:47 AM 34.2°F1.2°C 17.7°F-7.9°C 51% 0.6 mph N1.0 kmh N 2.0 mph3.2 kmh 29.38 in994.9 mb 0.00 in0.0 mm 0.00 in0.0 mm 0.00 in0.0 mm
04:02 AM 34.0°F1.1°C 17.6°F-8.0°C 51% Calm Calm 1.4 mph2.3 kmh 29.38 in994.9 mb 0.00 in0.0 mm 0.00 in0.0 mm 0.00 in0.0 mm
04:17 AM 34.0°F1.1°C 17.6°F-8.0°C 51% Calm Calm 2.0 mph3.2 kmh 29.38 in994.9 mb 0.00 in0.0 mm 0.00 in0.0 mm 0.00 in0.0 mm
04:32 AM 33.8°F1.0°C 17.4°F-8.1°C 51% Calm Calm 1.4 mph2.3 kmh 29.38 in994.9 mb 0.00 in0.0 mm 0.00 in0.0 mm 0.00 in0.0 mm
04:47 AM 33.8°F1.0°C 17.4°F-8.1°C 51% Calm Calm -- 29.38 in994.9 mb 0.00 in0.0 mm 0.00 in0.0 mm 0.00 in0.0 mm
05:02 AM 33.8°F1.0°C 17.4°F-8.1°C 51% Calm Calm 2.0 mph3.2 kmh 29.37 in994.6 mb 0.00 in0.0 mm 0.00 in0.0 mm 0.00 in0.0 mm
05:17 AM 34.0°F1.1°C 17.6°F-8.0°C 51% Calm Calm -- 29.38 in994.9 mb 0.00 in0.0 mm 0.00 in0.0 mm 0.00 in0.0 mm
05:32 AM 34.0°F1.1°C 17.6°F-8.0°C 51% Calm Calm -- 29.38 in994.9 mb 0.00 in0.0 mm 0.00 in0.0 mm 0.00 in0.0 mm
05:47 AM 33.8°F1.0°C 17.4°F-8.1°C 51% Calm Calm -- 29.37 in994.6 mb 0.00 in0.0 mm 0.00 in0.0 mm 0.00 in0.0 mm
06:02 AM 33.8°F1.0°C 17.4°F-8.1°C 51% Calm Calm 2.8 mph4.5 kmh 29.38 in994.9 mb 0.00 in0.0 mm 0.00 in0.0 mm 0.00 in0.0 mm
06:16 AM 33.8°F1.0°C 17.4°F-8.1°C 51% Calm Calm 2.8 mph4.5 kmh 29.38 in994.9 mb 0.00 in0.0 mm 0.00 in0.0 mm 0.00 in0.0 mm
06:32 AM 33.4°F0.8°C 17.1°F-8.3°C 51% Calm Calm -- 29.39 in995.3 mb 0.00 in0.0 mm 0.00 in0.0 mm 0.00 in0.0 mm
06:47 AM 33.6°F0.9°C 17.2°F-8.2°C 51% Calm Calm -- 29.39 in995.3 mb 0.00 in0.0 mm 0.00 in0.0 mm 0.00 in0.0 mm
07:02 AM 33.8°F1.0°C 17.4°F-8.1°C 51% Calm Calm -- 29.38 in994.9 mb 0.00 in0.0 mm 0.00 in0.0 mm 0.00 in0.0 mm
07:17 AM 33.8°F1.0°C 17.4°F-8.1°C 51% Calm Calm -- 29.38 in994.9 mb 0.00 in0.0 mm 0.00 in0.0 mm 0.00 in0.0 mm
07:32 AM 34.0°F1.1°C 17.6°F-8.0°C 51% Calm Calm -- 29.39 in995.3 mb 0.00 in0.0 mm 0.00 in0.0 mm 0.00 in0.0 mm
07:47 AM 34.2°F1.2°C 17.7°F-7.9°C 51% Calm Calm -- 29.39 in995.3 mb 0.00 in0.0 mm 0.00 in0.0 mm 0.00 in0.0 mm
08:02 AM 34.0°F1.1°C 17.6°F-8.0°C 51% Calm Calm -- 29.39 in995.3 mb 0.00 in0.0 mm 0.00 in0.0 mm 0.00 in0.0 mm
08:17 AM 34.2°F1.2°C 17.7°F-7.9°C 51% Calm Calm -- 29.39 in995.3 mb 0.00 in0.0 mm 0.00 in0.0 mm 0.00 in0.0 mm
08:32 AM 34.5°F1.4°C 18.1°F-7.7°C 51% Calm Calm 2.0 mph3.2 kmh 29.40 in995.6 mb 0.00 in0.0 mm 0.00 in0.0 mm 0.00 in0.0 mm
08:47 AM 34.5°F1.4°C 18.1°F-7.7°C 51% Calm Calm -- 29.39 in995.3 mb 0.00 in0.0 mm 0.00 in0.0 mm 0.00 in0.0 mm
09:02 AM 35.2°F1.8°C 18.7°F-7.4°C 51% Calm Calm -- 29.39 in995.3 mb 0.00 in0.0 mm 0.00 in0.0 mm 0.00 in0.0 mm
09:17 AM 35.8°F2.1°C 19.2°F-7.1°C 51% Calm Calm -- 29.39 in995.3 mb 0.00 in0.0 mm 0.00 in0.0 mm 0.00 in0.0 mm
09:32 AM 36.7°F2.6°C 20.1°F-6.6°C 51% Calm Calm -- 29.39 in995.3 mb 0.00 in0.0 mm 0.00 in0.0 mm 0.00 in0.0 mm
09:47 AM 39.7°F4.3°C 23.4°F-4.8°C 52% Calm Calm -- 29.39 in995.3 mb 0.00 in0.0 mm 0.00 in0.0 mm 0.00 in0.0 mm
10:02 AM 38.7°F3.7°C 21.9°F-5.6°C 51% Calm Calm -- 29.39 in995.3 mb 0.00 in0.0 mm 0.00 in0.0 mm 0.00 in0.0 mm
10:17 AM 38.7°F3.7°C 21.9°F-5.6°C 51% Calm Calm 0.6 mph1.0 kmh 29.39 in995.3 mb 0.00 in0.0 mm 0.00 in0.0 mm 0.00 in0.0 mm
10:32 AM 38.7°F3.7°C 21.9°F-5.6°C 51% 0.6 mph N1.0 kmh N 2.8 mph4.5 kmh 29.39 in995.3 mb 0.00 in0.0 mm 0.00 in0.0 mm 0.00 in0.0 mm
10:47 AM 38.5°F3.6°C 21.7°F-5.7°C 51% Calm Calm -- 29.39 in995.3 mb 0.00 in0.0 mm 0.00 in0.0 mm 0.00 in0.0 mm
11:02 AM 37.9°F3.3°C 21.2°F-6.0°C 51% Calm Calm -- 29.39 in995.3 mb 0.00 in0.0 mm 0.00 in0.0 mm 0.00 in0.0 mm
11:17 AM 37.6°F3.1°C 20.4°F-6.4°C 50% Calm Calm -- 29.39 in995.3 mb 0.00 in0.0 mm 0.00 in0.0 mm 0.00 in0.0 mm
11:32 AM 37.0°F2.8°C 19.9°F-6.7°C 50% Calm Calm -- 29.38 in994.9 mb 0.00 in0.0 mm 0.00 in0.0 mm 0.00 in0.0 mm
11:47 AM 36.5°F2.5°C 19.0°F-7.2°C 49% Calm Calm -- 29.38 in994.9 mb 0.00 in0.0 mm 0.00 in0.0 mm 0.00 in0.0 mm
12:02 PM 36.1°F2.3°C 18.6°F-7.4°C 49% Calm Calm -- 29.37 in994.6 mb 0.00 in0.0 mm 0.00 in0.0 mm 0.00 in0.0 mm
12:17 PM 36.0°F2.2°C 18.5°F-7.5°C 49% Calm Calm -- 29.37 in994.6 mb 0.01 in0.3 mm 0.05 in1.3 mm 0.01 in0.3 mm
12:32 PM 36.3°F2.4°C 18.8°F-7.3°C 49% Calm Calm -- 29.36 in994.2 mb 0.02 in0.5 mm 0.05 in1.3 mm 0.02 in0.5 mm
12:47 PM 36.1°F2.3°C 18.1°F-7.7°C 48% Calm Calm -- 29.36 in994.2 mb 0.02 in0.5 mm 0.00 in0.0 mm 0.02 in0.5 mm
01:02 PM 36.1°F2.3°C 18.1°F-7.7°C 48% Calm Calm 0.6 mph1.0 kmh 29.35 in993.9 mb 0.02 in0.5 mm 0.00 in0.0 mm 0.02 in0.5 mm
01:17 PM 36.3°F2.4°C 18.3°F-7.6°C 48% Calm Calm 0.6 mph1.0 kmh 29.35 in993.9 mb 0.00 in0.0 mm 0.00 in0.0 mm 0.02 in0.5 mm
01:32 PM 36.3°F2.4°C 18.3°F-7.6°C 48% Calm Calm -- 29.34 in993.6 mb 0.00 in0.0 mm 0.00 in0.0 mm 0.02 in0.5 mm
01:47 PM 36.1°F2.3°C 18.1°F-7.7°C 48% Calm Calm 0.6 mph1.0 kmh 29.34 in993.6 mb 0.00 in0.0 mm 0.00 in0.0 mm 0.02 in0.5 mm
02:02 PM 36.1°F2.3°C 17.6°F-8.0°C 47% Calm Calm 2.8 mph4.5 kmh 29.34 in993.6 mb 0.00 in0.0 mm 0.00 in0.0 mm 0.02 in0.5 mm
02:17 PM 35.8°F2.1°C 17.3°F-8.2°C 47% Calm Calm 2.8 mph4.5 kmh 29.34 in993.6 mb 0.00 in0.0 mm 0.00 in0.0 mm 0.02 in0.5 mm
02:32 PM 35.6°F2.0°C 17.2°F-8.2°C 47% Calm Calm 0.6 mph1.0 kmh 29.33 in993.2 mb 0.00 in0.0 mm 0.00 in0.0 mm 0.02 in0.5 mm
02:47 PM 35.8°F2.1°C 17.3°F-8.2°C 47% Calm Calm -- 29.33 in993.2 mb 0.00 in0.0 mm 0.00 in0.0 mm 0.02 in0.5 mm
03:02 PM 35.8°F2.1°C 16.8°F-8.4°C 46% Calm Calm -- 29.33 in993.2 mb 0.00 in0.0 mm 0.00 in0.0 mm 0.02 in0.5 mm
03:17 PM 35.8°F2.1°C 16.8°F-8.4°C 46% Calm Calm 0.6 mph1.0 kmh 29.33 in993.2 mb 0.00 in0.0 mm 0.00 in0.0 mm 0.02 in0.5 mm
03:32 PM 35.6°F2.0°C 16.7°F-8.5°C 46% Calm Calm 2.0 mph3.2 kmh 29.33 in993.2 mb 0.00 in0.0 mm 0.00 in0.0 mm 0.02 in0.5 mm
03:47 PM 35.6°F2.0°C 16.7°F-8.5°C 46% Calm Calm -- 29.33 in993.2 mb 0.00 in0.0 mm 0.00 in0.0 mm 0.02 in0.5 mm
04:02 PM 35.4°F1.9°C 16.0°F-8.9°C 45% Calm Calm 1.4 mph2.3 kmh 29.33 in993.2 mb 0.00 in0.0 mm 0.00 in0.0 mm 0.02 in0.5 mm
04:17 PM 35.2°F1.8°C 15.8°F-9.0°C 45% Calm Calm -- 29.33 in993.2 mb 0.00 in0.0 mm 0.00 in0.0 mm 0.02 in0.5 mm
04:32 PM 35.6°F2.0°C 16.1°F-8.8°C 45% Calm Calm 0.6 mph1.0 kmh 29.33 in993.2 mb 0.00 in0.0 mm 0.00 in0.0 mm 0.02 in0.5 mm
04:47 PM 35.6°F2.0°C 16.1°F-8.8°C 45% Calm Calm -- 29.33 in993.2 mb 0.00 in0.0 mm 0.00 in0.0 mm 0.02 in0.5 mm
05:02 PM 35.4°F1.9°C 16.0°F-8.9°C 45% Calm Calm 0.6 mph1.0 kmh 29.33 in993.2 mb 0.00 in0.0 mm 0.00 in0.0 mm 0.02 in0.5 mm
05:17 PM 35.2°F1.8°C 15.3°F-9.3°C 44% Calm Calm 1.4 mph2.3 kmh 29.33 in993.2 mb 0.00 in0.0 mm 0.00 in0.0 mm 0.02 in0.5 mm
05:32 PM 35.2°F1.8°C 15.3°F-9.3°C 44% Calm Calm 2.0 mph3.2 kmh 29.33 in993.2 mb 0.00 in0.0 mm 0.00 in0.0 mm 0.02 in0.5 mm
05:47 PM 35.2°F1.8°C 15.3°F-9.3°C 44% Calm Calm -- 29.33 in993.2 mb 0.00 in0.0 mm 0.00 in0.0 mm 0.02 in0.5 mm
06:02 PM 35.1°F1.7°C 15.1°F-9.4°C 44% Calm Calm 0.6 mph1.0 kmh 29.32 in992.9 mb 0.00 in0.0 mm 0.00 in0.0 mm 0.02 in0.5 mm
06:17 PM 35.1°F1.7°C 15.1°F-9.4°C 44% Calm Calm 1.4 mph2.3 kmh 29.32 in992.9 mb 0.00 in0.0 mm 0.00 in0.0 mm 0.02 in0.5 mm
06:32 PM 35.1°F1.7°C 15.1°F-9.4°C 44% Calm Calm -- 29.32 in992.9 mb 0.00 in0.0 mm 0.00 in0.0 mm 0.02 in0.5 mm
06:47 PM 35.1°F1.7°C 15.1°F-9.4°C 44% Calm Calm 0.6 mph1.0 kmh 29.32 in992.9 mb 0.00 in0.0 mm 0.00 in0.0 mm 0.02 in0.5 mm
07:02 PM 35.1°F1.7°C 15.1°F-9.4°C 44% Calm Calm -- 29.32 in992.9 mb 0.00 in0.0 mm 0.00 in0.0 mm 0.02 in0.5 mm
07:17 PM 35.2°F1.8°C 15.3°F-9.3°C 44% Calm Calm -- 29.32 in992.9 mb 0.00 in0.0 mm 0.00 in0.0 mm 0.02 in0.5 mm
07:32 PM 35.1°F1.7°C 14.6°F-9.7°C 43% Calm Calm -- 29.31 in992.6 mb 0.00 in0.0 mm 0.00 in0.0 mm 0.02 in0.5 mm
07:47 PM 35.1°F1.7°C 15.1°F-9.4°C 44% Calm Calm -- 29.31 in992.6 mb 0.00 in0.0 mm 0.00 in0.0 mm 0.02 in0.5 mm
08:02 PM 34.7°F1.5°C 14.3°F-9.8°C 43% Calm Calm -- 29.31 in992.6 mb 0.00 in0.0 mm 0.00 in0.0 mm 0.02 in0.5 mm
08:17 PM 34.5°F1.4°C 14.1°F-9.9°C 43% Calm Calm -- 29.31 in992.6 mb 0.00 in0.0 mm 0.00 in0.0 mm 0.02 in0.5 mm
08:32 PM 34.3°F1.3°C 13.9°F-10.1°C 43% Calm Calm -- 29.31 in992.6 mb 0.00 in0.0 mm 0.00 in0.0 mm 0.02 in0.5 mm
08:47 PM 34.3°F1.3°C 13.9°F-10.1°C 43% Calm Calm 0.6 mph1.0 kmh 29.31 in992.6 mb 0.00 in0.0 mm 0.00 in0.0 mm 0.02 in0.5 mm
09:02 PM 34.3°F1.3°C 13.9°F-10.1°C 43% Calm Calm -- 29.31 in992.6 mb 0.00 in0.0 mm 0.00 in0.0 mm 0.02 in0.5 mm
09:17 PM 34.3°F1.3°C 13.9°F-10.1°C 43% Calm Calm -- 29.31 in992.6 mb 0.00 in0.0 mm 0.00 in0.0 mm 0.02 in0.5 mm
09:32 PM 34.3°F1.3°C 13.9°F-10.1°C 43% Calm Calm -- 29.31 in992.6 mb 0.00 in0.0 mm 0.00 in0.0 mm 0.02 in0.5 mm
09:47 PM 33.8°F1.0°C 13.5°F-10.3°C 43% Calm Calm -- 29.31 in992.6 mb 0.00 in0.0 mm 0.00 in0.0 mm 0.02 in0.5 mm
10:02 PM 33.8°F1.0°C 13.5°F-10.3°C 43% Calm Calm -- 29.31 in992.6 mb 0.00 in0.0 mm 0.00 in0.0 mm 0.02 in0.5 mm
10:17 PM 33.8°F1.0°C 13.5°F-10.3°C 43% Calm Calm -- 29.31 in992.6 mb 0.00 in0.0 mm 0.00 in0.0 mm 0.02 in0.5 mm
10:32 PM 33.8°F1.0°C 13.5°F-10.3°C 43% Calm Calm -- 29.31 in992.6 mb 0.00 in0.0 mm 0.00 in0.0 mm 0.02 in0.5 mm
10:47 PM 33.8°F1.0°C 13.5°F-10.3°C 43% Calm Calm -- 29.30 in992.2 mb 0.00 in0.0 mm 0.00 in0.0 mm 0.02 in0.5 mm
11:02 PM 33.6°F0.9°C 13.3°F-10.4°C 43% Calm Calm -- 29.30 in992.2 mb 0.00 in0.0 mm 0.00 in0.0 mm 0.02 in0.5 mm
11:17 PM 33.4°F0.8°C 13.1°F-10.5°C 43% Calm Calm 1.4 mph2.3 kmh 29.30 in992.2 mb 0.00 in0.0 mm 0.00 in0.0 mm 0.02 in0.5 mm
11:32 PM 33.1°F0.6°C 12.8°F-10.7°C 43% Calm Calm -- 29.30 in992.2 mb 0.00 in0.0 mm 0.00 in0.0 mm 0.02 in0.5 mm
11:47 PM 32.9°F0.5°C 13.2°F-10.4°C 44% Calm Calm -- 29.31 in992.6 mb 0.00 in0.0 mm 0.00 in0.0 mm 0.02 in0.5 mm